sensor_id;sensor_type;location;lat;lon;timestamp;pressure;altitude;pressure_sealevel;temperature;humidity
13476;BME280;6810;63.824;20.288;2023-07-02T00:00:29;99726.44;;;13.77;67.80
13476;BME280;6810;63.824;20.288;2023-07-02T00:03:17;99749.03;;;13.84;67.99
13476;BME280;6810;63.824;20.288;2023-07-02T00:06:04;99750.41;;;13.79;68.63
13476;BME280;6810;63.824;20.288;2023-07-02T00:08:51;99736.53;;;13.74;68.29
13476;BME280;6810;63.824;20.288;2023-07-02T00:11:39;99742.31;;;13.69;68.71
13476;BME280;6810;63.824;20.288;2023-07-02T00:14:07;99738.81;;;13.69;68.64
13476;BME280;6810;63.824;20.288;2023-07-02T00:16:54;99715.03;;;13.55;68.87
13476;BME280;6810;63.824;20.288;2023-07-02T00:19:22;99721.69;;;13.60;68.70
13476;BME280;6810;63.824;20.288;2023-07-02T00:22:09;99738.22;;;13.65;68.44
13476;BME280;6810;63.824;20.288;2023-07-02T00:24:56;99732.25;;;13.62;68.16
13476;BME280;6810;63.824;20.288;2023-07-02T00:27:44;99720.66;;;13.52;68.77
13476;BME280;6810;63.824;20.288;2023-07-02T00:30:31;99733.38;;;13.59;68.33
13476;BME280;6810;63.824;20.288;2023-07-02T00:33:18;99721.50;;;13.52;68.29
13476;BME280;6810;63.824;20.288;2023-07-02T00:36:05;99737.06;;;13.58;69.18
13476;BME280;6810;63.824;20.288;2023-07-02T00:38:52;99718.97;;;13.51;68.28
13476;BME280;6810;63.824;20.288;2023-07-02T00:41:39;99696.50;;;13.42;68.43
13476;BME280;6810;63.824;20.288;2023-07-02T00:44:26;99728.03;;;13.59;68.31
13476;BME280;6810;63.824;20.288;2023-07-02T00:47:13;99730.13;;;13.56;68.44
13476;BME280;6810;63.824;20.288;2023-07-02T00:50:01;99725.16;;;13.51;68.46
13476;BME280;6810;63.824;20.288;2023-07-02T00:52:29;99720.06;;;13.48;69.37
13476;BME280;6810;63.824;20.288;2023-07-02T00:55:17;99722.00;;;13.46;68.86
13476;BME280;6810;63.824;20.288;2023-07-02T00:58:04;99679.63;;;13.21;68.80
13476;BME280;6810;63.824;20.288;2023-07-02T01:00:47;99718.91;;;13.41;69.11
13476;BME280;6810;63.824;20.288;2023-07-02T01:03:34;99716.88;;;13.34;69.45
13476;BME280;6810;63.824;20.288;2023-07-02T01:06:35;99729.03;;;13.38;69.21
13476;BME280;6810;63.824;20.288;2023-07-02T01:09:19;99736.19;;;13.37;69.13
13476;BME280;6810;63.824;20.288;2023-07-02T01:12:07;99719.56;;;13.34;69.82
13476;BME280;6810;63.824;20.288;2023-07-02T01:14:40;99727.19;;;13.38;69.07
13476;BME280;6810;63.824;20.288;2023-07-02T01:17:31;99730.69;;;13.39;69.83
13476;BME280;6810;63.824;20.288;2023-07-02T01:20:20;99737.06;;;13.38;69.13
13476;BME280;6810;63.824;20.288;2023-07-02T01:22:48;99730.00;;;13.37;69.50
13476;BME280;6810;63.824;20.288;2023-07-02T01:25:36;99673.66;;;12.97;69.95
13476;BME280;6810;63.824;20.288;2023-07-02T01:28:23;99720.53;;;13.33;69.45
13476;BME280;6810;63.824;20.288;2023-07-02T01:31:10;99725.47;;;13.37;70.37
13476;BME280;6810;63.824;20.288;2023-07-02T01:33:57;99734.38;;;13.38;70.23
13476;BME280;6810;63.824;20.288;2023-07-02T01:36:32;99732.56;;;13.38;69.96
13476;BME280;6810;63.824;20.288;2023-07-02T01:39:19;99718.72;;;13.33;69.85
13476;BME280;6810;63.824;20.288;2023-07-02T01:42:14;99722.50;;;13.31;70.25
13476;BME280;6810;63.824;20.288;2023-07-02T01:45:02;99733.66;;;13.36;70.61
13476;BME280;6810;63.824;20.288;2023-07-02T01:47:49;99731.81;;;13.36;70.63
13476;BME280;6810;63.824;20.288;2023-07-02T01:50:36;99731.09;;;13.34;71.38
13476;BME280;6810;63.824;20.288;2023-07-02T01:53:23;99670.84;;;12.99;70.91
13476;BME280;6810;63.824;20.288;2023-07-02T01:55:50;99733.91;;;13.33;70.61
13476;BME280;6810;63.824;20.288;2023-07-02T01:58:37;99737.31;;;13.35;71.28
13476;BME280;6810;63.824;20.288;2023-07-02T02:01:24;99741.94;;;13.33;70.57
13476;BME280;6810;63.824;20.288;2023-07-02T02:04:12;99735.88;;;13.31;70.89
13476;BME280;6810;63.824;20.288;2023-07-02T02:06:59;99743.91;;;13.31;71.29
13476;BME280;6810;63.824;20.288;2023-07-02T02:09:46;99636.44;;;12.74;71.31
13476;BME280;6810;63.824;20.288;2023-07-02T02:12:33;99730.53;;;13.31;71.36
13476;BME280;6810;63.824;20.288;2023-07-02T02:15:20;99732.47;;;13.29;71.68
13476;BME280;6810;63.824;20.288;2023-07-02T02:17:56;99697.56;;;13.10;71.66
13476;BME280;6810;63.824;20.288;2023-07-02T02:20:43;99731.75;;;13.27;71.68
13476;BME280;6810;63.824;20.288;2023-07-02T02:23:10;99725.84;;;13.23;72.57
13476;BME280;6810;63.824;20.288;2023-07-02T02:25:59;99703.50;;;13.13;71.87
13476;BME280;6810;63.824;20.288;2023-07-02T02:28:46;99729.94;;;13.27;72.29
13476;BME280;6810;63.824;20.288;2023-07-02T02:31:33;99708.44;;;13.18;71.91
13476;BME280;6810;63.824;20.288;2023-07-02T02:34:21;99716.81;;;13.24;72.21
13476;BME280;6810;63.824;20.288;2023-07-02T02:37:08;99721.06;;;13.27;71.94
13476;BME280;6810;63.824;20.288;2023-07-02T02:39:56;99725.56;;;13.26;72.53
13476;BME280;6810;63.824;20.288;2023-07-02T02:42:46;99725.31;;;13.29;71.97
13476;BME280;6810;63.824;20.288;2023-07-02T02:45:35;99730.41;;;13.32;72.62
13476;BME280;6810;63.824;20.288;2023-07-02T02:48:22;99711.72;;;13.21;72.28
13476;BME280;6810;63.824;20.288;2023-07-02T02:50:57;99734.50;;;13.36;72.58
13476;BME280;6810;63.824;20.288;2023-07-02T02:53:26;99728.16;;;13.37;73.38
13476;BME280;6810;63.824;20.288;2023-07-02T02:56:13;99688.44;;;13.12;72.39
13476;BME280;6810;63.824;20.288;2023-07-02T02:58:40;99733.84;;;13.44;72.95
13476;BME280;6810;63.824;20.288;2023-07-02T03:01:28;99729.81;;;13.49;72.91
13476;BME280;6810;63.824;20.288;2023-07-02T03:03:59;99707.47;;;13.39;72.25
13476;BME280;6810;63.824;20.288;2023-07-02T03:06:46;99728.28;;;13.56;72.50
13476;BME280;6810;63.824;20.288;2023-07-02T03:09:33;99725.22;;;13.61;72.31
13476;BME280;6810;63.824;20.288;2023-07-02T03:12:22;99723.41;;;13.61;73.08
13476;BME280;6810;63.824;20.288;2023-07-02T03:15:09;99718.47;;;13.66;72.98
13476;BME280;6810;63.824;20.288;2023-07-02T03:17:56;99674.22;;;13.42;72.21
13476;BME280;6810;63.824;20.288;2023-07-02T03:20:43;99708.88;;;13.64;71.69
13476;BME280;6810;63.824;20.288;2023-07-02T03:23:30;99710.31;;;13.68;71.73
13476;BME280;6810;63.824;20.288;2023-07-02T03:26:17;99718.06;;;13.71;72.34
13476;BME280;6810;63.824;20.288;2023-07-02T03:29:05;99716.84;;;13.75;71.43
13476;BME280;6810;63.824;20.288;2023-07-02T03:31:52;99720.94;;;13.79;71.06
13476;BME280;6810;63.824;20.288;2023-07-02T03:34:35;99722.75;;;13.78;71.71
13476;BME280;6810;63.824;20.288;2023-07-02T03:37:22;99714.63;;;13.80;70.37
13476;BME280;6810;63.824;20.288;2023-07-02T03:39:49;99712.03;;;13.78;71.24
13476;BME280;6810;63.824;20.288;2023-07-02T03:42:37;99704.00;;;13.78;70.81
13476;BME280;6810;63.824;20.288;2023-07-02T03:45:24;99652.53;;;13.45;70.18
13476;BME280;6810;63.824;20.288;2023-07-02T03:48:00;99704.88;;;13.79;69.94
13476;BME280;6810;63.824;20.288;2023-07-02T03:50:47;99710.94;;;13.81;69.88
13476;BME280;6810;63.824;20.288;2023-07-02T03:53:34;99698.41;;;13.81;69.54
13476;BME280;6810;63.824;20.288;2023-07-02T03:56:09;99673.06;;;13.65;69.47
13476;BME280;6810;63.824;20.288;2023-07-02T03:58:56;99698.53;;;13.80;68.90
13476;BME280;6810;63.824;20.288;2023-07-02T04:01:23;99685.56;;;13.85;68.43
13476;BME280;6810;63.824;20.288;2023-07-02T04:04:10;99689.56;;;13.90;69.15
13476;BME280;6810;63.824;20.288;2023-07-02T04:06:40;99693.78;;;13.93;67.98
13476;BME280;6810;63.824;20.288;2023-07-02T04:09:27;99700.56;;;13.97;68.16
13476;BME280;6810;63.824;20.288;2023-07-02T04:12:03;99696.78;;;14.00;68.17
13476;BME280;6810;63.824;20.288;2023-07-02T04:14:31;99691.97;;;14.03;67.72
13476;BME280;6810;63.824;20.288;2023-07-02T04:17:18;99676.44;;;13.97;67.59
13476;BME280;6810;63.824;20.288;2023-07-02T04:20:05;99687.66;;;14.12;67.64
13476;BME280;6810;63.824;20.288;2023-07-02T04:22:52;99678.44;;;14.05;67.66
13476;BME280;6810;63.824;20.288;2023-07-02T04:25:21;99690.50;;;14.20;66.92
13476;BME280;6810;63.824;20.288;2023-07-02T04:28:28;99694.63;;;14.24;67.10
13476;BME280;6810;63.824;20.288;2023-07-02T04:31:15;99682.91;;;14.25;66.65
13476;BME280;6810;63.824;20.288;2023-07-02T04:34:03;99695.63;;;14.32;66.44
13476;BME280;6810;63.824;20.288;2023-07-02T04:36:50;99692.66;;;14.35;66.74
13476;BME280;6810;63.824;20.288;2023-07-02T04:39:37;99695.78;;;14.40;66.71
13476;BME280;6810;63.824;20.288;2023-07-02T04:42:21;99686.59;;;14.43;65.80
13476;BME280;6810;63.824;20.288;2023-07-02T04:45:08;99686.59;;;14.43;65.46
13476;BME280;6810;63.824;20.288;2023-07-02T04:47:55;99690.00;;;14.45;64.96
13476;BME280;6810;63.824;20.288;2023-07-02T04:50:38;99702.16;;;14.49;65.02
13476;BME280;6810;63.824;20.288;2023-07-02T04:53:25;99701.16;;;14.50;64.30
13476;BME280;6810;63.824;20.288;2023-07-02T04:56:12;99708.78;;;14.54;64.53
13476;BME280;6810;63.824;20.288;2023-07-02T04:58:59;99698.94;;;14.55;64.03
13476;BME280;6810;63.824;20.288;2023-07-02T05:01:46;99694.66;;;14.52;63.55
13476;BME280;6810;63.824;20.288;2023-07-02T05:04:34;99704.56;;;14.52;63.49
13476;BME280;6810;63.824;20.288;2023-07-02T05:07:22;99682.25;;;14.42;63.47
13476;BME280;6810;63.824;20.288;2023-07-02T05:10:09;99683.41;;;14.49;63.91
13476;BME280;6810;63.824;20.288;2023-07-02T05:12:56;99690.88;;;14.45;63.78
13476;BME280;6810;63.824;20.288;2023-07-02T05:15:43;99693.97;;;14.50;63.47
13476;BME280;6810;63.824;20.288;2023-07-02T05:18:30;99692.56;;;14.56;63.30
13476;BME280;6810;63.824;20.288;2023-07-02T05:21:18;99633.84;;;14.24;63.02
13476;BME280;6810;63.824;20.288;2023-07-02T05:24:05;99698.50;;;14.59;62.85
13476;BME280;6810;63.824;20.288;2023-07-02T05:26:52;99657.25;;;14.41;62.85
13476;BME280;6810;63.824;20.288;2023-07-02T05:29:27;99680.28;;;14.53;62.68
13476;BME280;6810;63.824;20.288;2023-07-02T05:31:56;99677.63;;;14.53;63.34
13476;BME280;6810;63.824;20.288;2023-07-02T05:34:44;99685.25;;;14.58;62.84
13476;BME280;6810;63.824;20.288;2023-07-02T05:37:31;99647.66;;;14.39;62.94
13476;BME280;6810;63.824;20.288;2023-07-02T05:40:17;99673.22;;;14.62;63.08
13476;BME280;6810;63.824;20.288;2023-07-02T05:42:46;99589.47;;;14.11;62.95
13476;BME280;6810;63.824;20.288;2023-07-02T05:45:33;99674.91;;;14.63;62.64
13476;BME280;6810;63.824;20.288;2023-07-02T05:48:20;99664.63;;;14.68;62.49
13476;BME280;6810;63.824;20.288;2023-07-02T05:51:10;99678.31;;;14.74;62.53
13476;BME280;6810;63.824;20.288;2023-07-02T05:53:52;99657.56;;;14.67;63.09
13476;BME280;6810;63.824;20.288;2023-07-02T05:56:22;99675.06;;;14.80;63.01
13476;BME280;6810;63.824;20.288;2023-07-02T05:59:09;99672.81;;;14.85;63.05
13476;BME280;6810;63.824;20.288;2023-07-02T06:01:56;99670.13;;;14.85;62.54
13476;BME280;6810;63.824;20.288;2023-07-02T06:04:43;99672.94;;;14.93;62.42
13476;BME280;6810;63.824;20.288;2023-07-02T06:07:30;99675.06;;;14.99;62.30
13476;BME280;6810;63.824;20.288;2023-07-02T06:10:17;99658.41;;;14.96;61.67
13476;BME280;6810;63.824;20.288;2023-07-02T06:13:04;99659.94;;;14.98;61.75
13476;BME280;6810;63.824;20.288;2023-07-02T06:15:51;99661.09;;;14.96;61.39
13476;BME280;6810;63.824;20.288;2023-07-02T06:18:38;99671.09;;;15.03;62.23
13476;BME280;6810;63.824;20.288;2023-07-02T06:21:25;99672.50;;;15.07;62.16
13476;BME280;6810;63.824;20.288;2023-07-02T06:24:12;99665.75;;;15.13;61.86
13476;BME280;6810;63.824;20.288;2023-07-02T06:27:00;99669.81;;;15.17;61.59
13476;BME280;6810;63.824;20.288;2023-07-02T06:29:47;99668.53;;;15.21;61.81
13476;BME280;6810;63.824;20.288;2023-07-02T06:32:34;99626.50;;;14.93;61.40
13476;BME280;6810;63.824;20.288;2023-07-02T06:35:17;99675.91;;;15.19;61.35
13476;BME280;6810;63.824;20.288;2023-07-02T06:38:04;99672.34;;;15.18;60.94
13476;BME280;6810;63.824;20.288;2023-07-02T06:40:51;99669.81;;;15.17;61.07
13476;BME280;6810;63.824;20.288;2023-07-02T06:43:38;99667.84;;;15.19;61.09
13476;BME280;6810;63.824;20.288;2023-07-02T06:46:05;99672.63;;;15.25;60.36
13476;BME280;6810;63.824;20.288;2023-07-02T06:48:52;99675.03;;;15.28;60.12
13476;BME280;6810;63.824;20.288;2023-07-02T06:51:39;99674.59;;;15.32;60.23
13476;BME280;6810;63.824;20.288;2023-07-02T06:54:08;99646.50;;;15.17;59.83
13476;BME280;6810;63.824;20.288;2023-07-02T06:56:55;99641.00;;;15.09;59.80
13476;BME280;6810;63.824;20.288;2023-07-02T06:59:42;99683.19;;;15.36;59.42
13476;BME280;6810;63.824;20.288;2023-07-02T07:02:29;99690.28;;;15.37;59.73
13476;BME280;6810;63.824;20.288;2023-07-02T07:05:16;99679.53;;;15.37;59.99
13476;BME280;6810;63.824;20.288;2023-07-02T07:08:04;99693.41;;;15.42;59.99
13476;BME280;6810;63.824;20.288;2023-07-02T07:10:31;99692.56;;;15.41;60.20
13476;BME280;6810;63.824;20.288;2023-07-02T07:13:18;99680.13;;;15.40;59.80
13476;BME280;6810;63.824;20.288;2023-07-02T07:16:05;99674.75;;;15.40;59.92
13476;BME280;6810;63.824;20.288;2023-07-02T07:18:52;99681.97;;;15.40;59.86
13476;BME280;6810;63.824;20.288;2023-07-02T07:21:20;99645.50;;;15.18;59.87
13476;BME280;6810;63.824;20.288;2023-07-02T07:24:07;99667.94;;;15.27;59.89
13476;BME280;6810;63.824;20.288;2023-07-02T07:26:54;99679.97;;;15.32;59.93
13476;BME280;6810;63.824;20.288;2023-07-02T07:29:45;99677.56;;;15.29;60.14
13476;BME280;6810;63.824;20.288;2023-07-02T07:32:33;99667.66;;;15.30;60.11
13476;BME280;6810;63.824;20.288;2023-07-02T07:35:00;99669.06;;;15.34;60.11
13476;BME280;6810;63.824;20.288;2023-07-02T07:37:43;99678.56;;;15.38;60.04
13476;BME280;6810;63.824;20.288;2023-07-02T07:40:30;99671.91;;;15.32;59.39
13476;BME280;6810;63.824;20.288;2023-07-02T07:43:17;99657.50;;;15.24;59.50
13476;BME280;6810;63.824;20.288;2023-07-02T07:46:04;99674.59;;;15.23;59.76
13476;BME280;6810;63.824;20.288;2023-07-02T07:48:51;99679.97;;;15.23;59.99
13476;BME280;6810;63.824;20.288;2023-07-02T07:51:38;99681.38;;;15.27;60.11
13476;BME280;6810;63.824;20.288;2023-07-02T07:54:25;99685.34;;;15.32;59.98
13476;BME280;6810;63.824;20.288;2023-07-02T07:57:13;99673.19;;;15.38;59.93
13476;BME280;6810;63.824;20.288;2023-07-02T07:59:59;99679.69;;;15.35;59.53
13476;BME280;6810;63.824;20.288;2023-07-02T08:02:47;99678.56;;;15.38;59.92
13476;BME280;6810;63.824;20.288;2023-07-02T08:05:34;99678.13;;;15.42;60.14
13476;BME280;6810;63.824;20.288;2023-07-02T08:08:21;99669.63;;;15.47;60.32
13476;BME280;6810;63.824;20.288;2023-07-02T08:11:08;99668.91;;;15.54;59.89
13476;BME280;6810;63.824;20.288;2023-07-02T08:13:36;99649.84;;;15.48;59.70
13476;BME280;6810;63.824;20.288;2023-07-02T08:16:23;99663.09;;;15.59;59.64
13476;BME280;6810;63.824;20.288;2023-07-02T08:19:10;99670.69;;;15.63;59.81
13476;BME280;6810;63.824;20.288;2023-07-02T08:21:57;99662.78;;;15.62;59.21
13476;BME280;6810;63.824;20.288;2023-07-02T08:24:44;99667.41;;;15.70;58.99
13476;BME280;6810;63.824;20.288;2023-07-02T08:27:31;99657.38;;;15.72;58.96
13476;BME280;6810;63.824;20.288;2023-07-02T08:34:56;99657.38;;;15.72;58.24
13476;BME280;6810;63.824;20.288;2023-07-02T08:37:43;99569.59;;;15.26;57.99
13476;BME280;6810;63.824;20.288;2023-07-02T08:40:29;99651.28;;;15.79;58.24
13476;BME280;6810;63.824;20.288;2023-07-02T08:43:17;99615.84;;;15.66;58.53
13476;BME280;6810;63.824;20.288;2023-07-02T08:46:04;99638.53;;;15.81;58.36
13476;BME280;6810;63.824;20.288;2023-07-02T08:48:51;99656.16;;;15.93;57.78
13476;BME280;6810;63.824;20.288;2023-07-02T08:51:39;99653.22;;;15.87;57.53
13476;BME280;6810;63.824;20.288;2023-07-02T08:54:25;99668.06;;;15.91;57.78
13476;BME280;6810;63.824;20.288;2023-07-02T08:57:12;99663.97;;;15.87;57.87
13476;BME280;6810;63.824;20.288;2023-07-02T09:00:00;99668.41;;;15.78;57.67
13476;BME280;6810;63.824;20.288;2023-07-02T09:02:31;99677.06;;;15.72;57.54
13476;BME280;6810;63.824;20.288;2023-07-02T09:05:19;99675.25;;;15.63;57.50
13476;BME280;6810;63.824;20.288;2023-07-02T09:08:06;99675.84;;;15.57;58.39
13476;BME280;6810;63.824;20.288;2023-07-02T09:10:54;99667.66;;;15.49;58.35
13476;BME280;6810;63.824;20.288;2023-07-02T09:13:47;99663.72;;;15.43;58.44
13476;BME280;6810;63.824;20.288;2023-07-02T09:16:34;99659.16;;;15.34;58.79
13476;BME280;6810;63.824;20.288;2023-07-02T09:19:21;99664.97;;;15.30;58.78
13476;BME280;6810;63.824;20.288;2023-07-02T09:21:49;99673.88;;;15.30;58.89
13476;BME280;6810;63.824;20.288;2023-07-02T09:24:19;99673.91;;;15.21;57.81
13476;BME280;6810;63.824;20.288;2023-07-02T09:27:06;99667.44;;;15.04;57.88
13476;BME280;6810;63.824;20.288;2023-07-02T09:29:53;99663.78;;;14.96;57.61
13476;BME280;6810;63.824;20.288;2023-07-02T09:32:25;99658.97;;;14.90;58.07
13476;BME280;6810;63.824;20.288;2023-07-02T09:35:13;99671.81;;;14.86;57.59
13476;BME280;6810;63.824;20.288;2023-07-02T09:38:00;99590.38;;;14.40;58.10
13476;BME280;6810;63.824;20.288;2023-07-02T09:40:49;99616.19;;;14.60;57.45
13476;BME280;6810;63.824;20.288;2023-07-02T09:43:18;99659.53;;;14.93;57.27
13476;BME280;6810;63.824;20.288;2023-07-02T09:46:08;99665.31;;;14.98;57.36
13476;BME280;6810;63.824;20.288;2023-07-02T09:48:56;99644.56;;;15.00;57.28
13476;BME280;6810;63.824;20.288;2023-07-02T09:51:44;99651.59;;;15.20;57.24
13476;BME280;6810;63.824;20.288;2023-07-02T09:54:31;99657.91;;;15.48;56.67
13476;BME280;6810;63.824;20.288;2023-07-02T09:57:18;99637.53;;;15.82;55.44
13476;BME280;6810;63.824;20.288;2023-07-02T09:59:47;99657.63;;;16.32;54.16
13476;BME280;6810;63.824;20.288;2023-07-02T10:02:36;99634.09;;;16.79;54.20
13476;BME280;6810;63.824;20.288;2023-07-02T10:05:32;99654.16;;;17.27;52.42
13476;BME280;6810;63.824;20.288;2023-07-02T10:08:19;99643.56;;;17.52;51.35
13476;BME280;6810;63.824;20.288;2023-07-02T10:10:53;99642.16;;;17.65;50.75
13476;BME280;6810;63.824;20.288;2023-07-02T10:13:40;99632.94;;;17.76;50.62
13476;BME280;6810;63.824;20.288;2023-07-02T10:16:27;99639.88;;;17.86;49.43
13476;BME280;6810;63.824;20.288;2023-07-02T10:18:55;99626.56;;;17.85;49.29
13476;BME280;6810;63.824;20.288;2023-07-02T10:21:42;99568.75;;;17.46;48.43
13476;BME280;6810;63.824;20.288;2023-07-02T10:24:30;99629.06;;;17.78;48.30
13476;BME280;6810;63.824;20.288;2023-07-02T10:27:17;99624.16;;;17.74;48.52
13476;BME280;6810;63.824;20.288;2023-07-02T10:30:00;99620.44;;;17.67;48.38
13476;BME280;6810;63.824;20.288;2023-07-02T10:32:48;99581.75;;;17.50;47.84
13476;BME280;6810;63.824;20.288;2023-07-02T10:35:34;99530.72;;;17.23;48.23
13476;BME280;6810;63.824;20.288;2023-07-02T10:38:24;99609.97;;;17.72;48.22
13476;BME280;6810;63.824;20.288;2023-07-02T10:40:56;99618.94;;;17.72;47.89
13476;BME280;6810;63.824;20.288;2023-07-02T10:43:43;99613.50;;;17.64;48.28
13476;BME280;6810;63.824;20.288;2023-07-02T10:46:30;99606.75;;;17.60;47.76
13476;BME280;6810;63.824;20.288;2023-07-02T10:49:18;99607.22;;;17.56;47.52
13476;BME280;6810;63.824;20.288;2023-07-02T10:52:05;99606.16;;;17.49;47.15
13476;BME280;6810;63.824;20.288;2023-07-02T10:54:52;99600.28;;;17.53;48.15
13476;BME280;6810;63.824;20.288;2023-07-02T10:57:35;99587.72;;;17.62;47.45
13476;BME280;6810;63.824;20.288;2023-07-02T11:00:22;99604.16;;;17.84;46.54
13476;BME280;6810;63.824;20.288;2023-07-02T11:03:18;99587.28;;;17.82;47.23
13476;BME280;6810;63.824;20.288;2023-07-02T11:06:08;99598.19;;;18.06;46.82
13476;BME280;6810;63.824;20.288;2023-07-02T11:08:55;99604.09;;;18.18;45.97
13476;BME280;6810;63.824;20.288;2023-07-02T11:11:27;99600.72;;;18.24;44.68
13476;BME280;6810;63.824;20.288;2023-07-02T11:14:14;99578.63;;;18.12;44.62
13476;BME280;6810;63.824;20.288;2023-07-02T11:17:05;99589.41;;;18.12;45.49
13476;BME280;6810;63.824;20.288;2023-07-02T11:19:53;99585.34;;;18.08;44.60
13476;BME280;6810;63.824;20.288;2023-07-02T11:22:40;99579.59;;;17.95;45.32
13476;BME280;6810;63.824;20.288;2023-07-02T11:25:28;99595.94;;;17.94;44.92
13476;BME280;6810;63.824;20.288;2023-07-02T11:28:15;99590.34;;;17.87;44.96
13476;BME280;6810;63.824;20.288;2023-07-02T11:31:04;99516.66;;;17.37;44.12
13476;BME280;6810;63.824;20.288;2023-07-02T11:33:51;99588.09;;;17.67;44.50
13476;BME280;6810;63.824;20.288;2023-07-02T11:36:38;99589.03;;;17.58;45.09
13476;BME280;6810;63.824;20.288;2023-07-02T11:39:25;99586.16;;;17.59;44.94
13476;BME280;6810;63.824;20.288;2023-07-02T11:42:12;99576.88;;;17.54;44.31
13476;BME280;6810;63.824;20.288;2023-07-02T11:44:59;99577.84;;;17.45;43.92
13476;BME280;6810;63.824;20.288;2023-07-02T11:47:46;99566.78;;;17.30;44.01
13476;BME280;6810;63.824;20.288;2023-07-02T11:50:33;99557.34;;;17.26;44.49
13476;BME280;6810;63.824;20.288;2023-07-02T11:53:20;99586.31;;;17.58;44.05
13476;BME280;6810;63.824;20.288;2023-07-02T11:55:49;99575.25;;;17.69;44.26
13476;BME280;6810;63.824;20.288;2023-07-02T11:58:36;99564.72;;;17.91;43.09
13476;BME280;6810;63.824;20.288;2023-07-02T12:01:23;99564.97;;;18.14;44.03
13476;BME280;6810;63.824;20.288;2023-07-02T12:04:11;99544.75;;;18.18;42.78
13476;BME280;6810;63.824;20.288;2023-07-02T12:06:59;99529.22;;;18.28;42.66
13476;BME280;6810;63.824;20.288;2023-07-02T12:09:28;99560.34;;;18.64;42.34
13476;BME280;6810;63.824;20.288;2023-07-02T12:12:15;99566.41;;;18.82;41.56
13476;BME280;6810;63.824;20.288;2023-07-02T12:14:58;99561.19;;;18.97;40.99
13476;BME280;6810;63.824;20.288;2023-07-02T12:17:45;99553.72;;;19.07;39.87
13476;BME280;6810;63.824;20.288;2023-07-02T12:20:32;99556.59;;;18.97;40.50
13476;BME280;6810;63.824;20.288;2023-07-02T12:23:19;99565.72;;;18.80;40.69
13476;BME280;6810;63.824;20.288;2023-07-02T12:25:46;99569.78;;;18.68;40.60
13476;BME280;6810;63.824;20.288;2023-07-02T12:28:33;99570.09;;;18.57;40.86
13476;BME280;6810;63.824;20.288;2023-07-02T12:31:21;99565.91;;;18.54;41.49
13476;BME280;6810;63.824;20.288;2023-07-02T12:34:09;99562.50;;;18.52;41.28
13476;BME280;6810;63.824;20.288;2023-07-02T12:36:56;99502.38;;;17.94;40.84
13476;BME280;6810;63.824;20.288;2023-07-02T12:39:44;99563.13;;;18.06;41.43
13476;BME280;6810;63.824;20.288;2023-07-02T12:42:11;99568.47;;;17.98;42.36
13476;BME280;6810;63.824;20.288;2023-07-02T12:44:58;99559.50;;;17.90;42.40
13476;BME280;6810;63.824;20.288;2023-07-02T12:47:47;99568.13;;;17.93;42.93
13476;BME280;6810;63.824;20.288;2023-07-02T12:50:37;99538.97;;;17.97;43.10
13476;BME280;6810;63.824;20.288;2023-07-02T12:53:25;99564.25;;;18.04;42.18
13476;BME280;6810;63.824;20.288;2023-07-02T12:55:56;99571.00;;;18.00;41.67
13476;BME280;6810;63.824;20.288;2023-07-02T12:58:43;99570.97;;;17.92;42.50
13476;BME280;6810;63.824;20.288;2023-07-02T13:01:30;99575.50;;;17.83;42.82
13476;BME280;6810;63.824;20.288;2023-07-02T13:03:58;99570.59;;;17.79;42.30
13476;BME280;6810;63.824;20.288;2023-07-02T13:06:45;99571.44;;;17.71;42.17
13476;BME280;6810;63.824;20.288;2023-07-02T13:09:32;99575.75;;;17.64;42.59
13476;BME280;6810;63.824;20.288;2023-07-02T13:11:59;99574.41;;;17.60;43.11
13476;BME280;6810;63.824;20.288;2023-07-02T13:14:47;99579.63;;;17.62;43.37
13476;BME280;6810;63.824;20.288;2023-07-02T13:17:34;99585.03;;;17.62;42.43
13476;BME280;6810;63.824;20.288;2023-07-02T13:20:21;99575.38;;;17.59;42.55
13476;BME280;6810;63.824;20.288;2023-07-02T13:23:08;99586.00;;;17.53;42.14
13476;BME280;6810;63.824;20.288;2023-07-02T13:25:55;99583.69;;;17.40;42.33
13476;BME280;6810;63.824;20.288;2023-07-02T13:28:42;99584.28;;;17.26;43.01
13476;BME280;6810;63.824;20.288;2023-07-02T13:31:29;99590.16;;;17.21;42.55
13476;BME280;6810;63.824;20.288;2023-07-02T13:34:16;99576.47;;;17.15;42.98
13476;BME280;6810;63.824;20.288;2023-07-02T13:37:03;99569.81;;;17.01;43.04
13476;BME280;6810;63.824;20.288;2023-07-02T13:39:50;99574.66;;;16.98;43.56
13476;BME280;6810;63.824;20.288;2023-07-02T13:42:38;99581.84;;;16.89;43.35
13476;BME280;6810;63.824;20.288;2023-07-02T13:45:25;99586.09;;;16.74;42.79
13476;BME280;6810;63.824;20.288;2023-07-02T13:48:12;99596.56;;;16.60;43.53
13476;BME280;6810;63.824;20.288;2023-07-02T13:50:59;99589.56;;;16.49;44.19
13476;BME280;6810;63.824;20.288;2023-07-02T13:53:46;99577.63;;;16.34;43.59
13476;BME280;6810;63.824;20.288;2023-07-02T13:56:33;99575.56;;;16.28;43.73
13476;BME280;6810;63.824;20.288;2023-07-02T13:59:20;99573.50;;;16.22;44.36
13476;BME280;6810;63.824;20.288;2023-07-02T14:02:07;99569.13;;;16.21;44.68
13476;BME280;6810;63.824;20.288;2023-07-02T14:04:35;99569.03;;;16.31;44.63
13476;BME280;6810;63.824;20.288;2023-07-02T14:07:26;99531.84;;;16.09;44.58
13476;BME280;6810;63.824;20.288;2023-07-02T14:10:14;99579.19;;;16.37;44.88
13476;BME280;6810;63.824;20.288;2023-07-02T14:13:01;99581.56;;;16.40;44.45
13476;BME280;6810;63.824;20.288;2023-07-02T14:15:49;99578.00;;;16.49;45.03
13476;BME280;6810;63.824;20.288;2023-07-02T14:18:20;99586.06;;;16.49;44.77
13476;BME280;6810;63.824;20.288;2023-07-02T14:21:07;99592.72;;;16.45;44.85
13476;BME280;6810;63.824;20.288;2023-07-02T14:23:54;99575.50;;;16.38;44.96
13476;BME280;6810;63.824;20.288;2023-07-02T14:26:26;99583.56;;;16.38;45.16
13476;BME280;6810;63.824;20.288;2023-07-02T14:29:13;99570.56;;;16.33;44.75
13476;BME280;6810;63.824;20.288;2023-07-02T14:32:00;99572.66;;;16.39;44.91
13476;BME280;6810;63.824;20.288;2023-07-02T14:34:43;99567.88;;;16.33;45.23